sensor_id;sensor_type;location;lat;lon;timestamp;temperature;humidity
26035;DHT22;13809;48.632;11.576;2024-01-06T00:02:39;10.20;41.40
26035;DHT22;13809;48.632;11.576;2024-01-06T00:07:42;10.30;41.80
26035;DHT22;13809;48.632;11.576;2024-01-06T00:12:46;10.30;41.50
26035;DHT22;13809;48.632;11.576;2024-01-06T00:17:52;10.30;41.60
26035;DHT22;13809;48.632;11.576;2024-01-06T00:22:55;10.30;41.70
26035;DHT22;13809;48.632;11.576;2024-01-06T00:28:00;10.30;41.60
26035;DHT22;13809;48.632;11.576;2024-01-06T00:33:05;10.30;41.60
26035;DHT22;13809;48.632;11.576;2024-01-06T00:38:08;10.30;41.80
26035;DHT22;13809;48.632;11.576;2024-01-06T00:43:12;10.30;41.60
26035;DHT22;13809;48.632;11.576;2024-01-06T00:48:16;10.30;41.60
26035;DHT22;13809;48.632;11.576;2024-01-06T00:53:19;10.20;41.90
26035;DHT22;13809;48.632;11.576;2024-01-06T00:58:22;10.20;41.70
26035;DHT22;13809;48.632;11.576;2024-01-06T01:03:27;10.20;41.90
26035;DHT22;13809;48.632;11.576;2024-01-06T01:08:31;10.20;42.30
26035;DHT22;13809;48.632;11.576;2024-01-06T01:13:34;10.20;42.00
26035;DHT22;13809;48.632;11.576;2024-01-06T01:18:38;10.20;42.10
26035;DHT22;13809;48.632;11.576;2024-01-06T01:23:42;10.20;42.30
26035;DHT22;13809;48.632;11.576;2024-01-06T01:28:45;10.20;42.10
26035;DHT22;13809;48.632;11.576;2024-01-06T01:33:49;10.20;42.00
26035;DHT22;13809;48.632;11.576;2024-01-06T01:38:53;10.20;42.30
26035;DHT22;13809;48.632;11.576;2024-01-06T01:43:56;10.30;42.00
26035;DHT22;13809;48.632;11.576;2024-01-06T01:49:02;10.30;42.10
26035;DHT22;13809;48.632;11.576;2024-01-06T01:54:06;10.30;42.40
26035;DHT22;13809;48.632;11.576;2024-01-06T01:59:11;10.30;42.00
26035;DHT22;13809;48.632;11.576;2024-01-06T02:04:16;10.30;42.30
26035;DHT22;13809;48.632;11.576;2024-01-06T02:09:20;10.30;42.30
26035;DHT22;13809;48.632;11.576;2024-01-06T02:14:25;10.30;42.00
26035;DHT22;13809;48.632;11.576;2024-01-06T02:19:29;10.30;42.20
26035;DHT22;13809;48.632;11.576;2024-01-06T02:24:34;10.30;42.30
26035;DHT22;13809;48.632;11.576;2024-01-06T02:29:37;10.20;42.50
26035;DHT22;13809;48.632;11.576;2024-01-06T02:34:41;10.20;42.40
26035;DHT22;13809;48.632;11.576;2024-01-06T02:39:46;10.20;42.40
26035;DHT22;13809;48.632;11.576;2024-01-06T02:44:49;10.20;42.80
26035;DHT22;13809;48.632;11.576;2024-01-06T02:49:52;10.20;42.50
26035;DHT22;13809;48.632;11.576;2024-01-06T02:54:58;10.20;42.50
26035;DHT22;13809;48.632;11.576;2024-01-06T03:00:03;10.20;42.80
26035;DHT22;13809;48.632;11.576;2024-01-06T03:05:06;10.10;42.30
26035;DHT22;13809;48.632;11.576;2024-01-06T03:10:12;10.10;42.30
26035;DHT22;13809;48.632;11.576;2024-01-06T03:15:15;10.00;42.60
26035;DHT22;13809;48.632;11.576;2024-01-06T03:20:18;10.00;42.50
26035;DHT22;13809;48.632;11.576;2024-01-06T03:25:23;9.90;43.50
26035;DHT22;13809;48.632;11.576;2024-01-06T03:30:26;9.80;44.00
26035;DHT22;13809;48.632;11.576;2024-01-06T03:35:29;9.70;43.80
26035;DHT22;13809;48.632;11.576;2024-01-06T03:40:34;9.70;43.90
26035;DHT22;13809;48.632;11.576;2024-01-06T03:45:37;9.60;44.30
26035;DHT22;13809;48.632;11.576;2024-01-06T03:50:40;9.60;44.10
26035;DHT22;13809;48.632;11.576;2024-01-06T03:55:45;9.50;44.30
26035;DHT22;13809;48.632;11.576;2024-01-06T04:00:48;9.50;44.50
26035;DHT22;13809;48.632;11.576;2024-01-06T04:05:51;9.50;44.30
26035;DHT22;13809;48.632;11.576;2024-01-06T04:10:56;9.40;44.10
26035;DHT22;13809;48.632;11.576;2024-01-06T04:15:59;9.40;44.50
26035;DHT22;13809;48.632;11.576;2024-01-06T04:21:02;9.30;44.30
26035;DHT22;13809;48.632;11.576;2024-01-06T04:26:08;9.30;44.30
26035;DHT22;13809;48.632;11.576;2024-01-06T04:31:11;9.30;44.60
26035;DHT22;13809;48.632;11.576;2024-01-06T04:36:14;9.30;44.20
26035;DHT22;13809;48.632;11.576;2024-01-06T04:41:19;9.30;44.10
26035;DHT22;13809;48.632;11.576;2024-01-06T04:46:22;9.20;44.30
26035;DHT22;13809;48.632;11.576;2024-01-06T04:51:25;9.20;44.10
26035;DHT22;13809;48.632;11.576;2024-01-06T04:56:30;9.20;44.30
26035;DHT22;13809;48.632;11.576;2024-01-06T05:01:37;9.20;44.60
26035;DHT22;13809;48.632;11.576;2024-01-06T05:06:40;9.20;44.20
26035;DHT22;13809;48.632;11.576;2024-01-06T05:11:45;9.10;44.10
26035;DHT22;13809;48.632;11.576;2024-01-06T05:16:48;9.10;44.30
26035;DHT22;13809;48.632;11.576;2024-01-06T05:21:52;9.10;44.10
26035;DHT22;13809;48.632;11.576;2024-01-06T05:26:56;9.00;43.90
26035;DHT22;13809;48.632;11.576;2024-01-06T05:32:00;9.00;44.10
26035;DHT22;13809;48.632;11.576;2024-01-06T05:37:03;9.00;43.90
26035;DHT22;13809;48.632;11.576;2024-01-06T05:42:09;9.00;43.90
26035;DHT22;13809;48.632;11.576;2024-01-06T05:47:13;9.00;44.20
26035;DHT22;13809;48.632;11.576;2024-01-06T05:52:16;9.10;44.00
26035;DHT22;13809;48.632;11.576;2024-01-06T05:57:21;9.10;43.80
26035;DHT22;13809;48.632;11.576;2024-01-06T06:02:24;9.10;44.10
26035;DHT22;13809;48.632;11.576;2024-01-06T06:07:27;9.20;43.90
26035;DHT22;13809;48.632;11.576;2024-01-06T06:12:32;9.30;43.90
26035;DHT22;13809;48.632;11.576;2024-01-06T06:17:35;9.30;44.00
26035;DHT22;13809;48.632;11.576;2024-01-06T06:22:38;9.30;43.80
26035;DHT22;13809;48.632;11.576;2024-01-06T06:27:43;9.40;43.80
26035;DHT22;13809;48.632;11.576;2024-01-06T06:32:46;9.40;43.80
26035;DHT22;13809;48.632;11.576;2024-01-06T06:37:49;9.40;43.60
26035;DHT22;13809;48.632;11.576;2024-01-06T06:42:54;9.30;43.50
26035;DHT22;13809;48.632;11.576;2024-01-06T06:47:57;9.30;43.70
26035;DHT22;13809;48.632;11.576;2024-01-06T06:53:00;9.30;43.60
26035;DHT22;13809;48.632;11.576;2024-01-06T06:58:05;9.20;43.60
26035;DHT22;13809;48.632;11.576;2024-01-06T07:03:08;9.20;43.90
26035;DHT22;13809;48.632;11.576;2024-01-06T07:08:11;9.20;43.70
26035;DHT22;13809;48.632;11.576;2024-01-06T07:13:18;9.20;43.70
26035;DHT22;13809;48.632;11.576;2024-01-06T07:18:22;9.30;43.80
26035;DHT22;13809;48.632;11.576;2024-01-06T07:23:27;9.30;43.70
26035;DHT22;13809;48.632;11.576;2024-01-06T07:28:31;9.20;43.60
26035;DHT22;13809;48.632;11.576;2024-01-06T07:33:34;9.20;43.80
26035;DHT22;13809;48.632;11.576;2024-01-06T07:38:37;9.10;43.60
26035;DHT22;13809;48.632;11.576;2024-01-06T07:43:42;9.10;43.80
26035;DHT22;13809;48.632;11.576;2024-01-06T07:48:45;9.00;43.90
26035;DHT22;13809;48.632;11.576;2024-01-06T07:53:48;9.00;43.80
26035;DHT22;13809;48.632;11.576;2024-01-06T07:58:53;9.00;44.00
26035;DHT22;13809;48.632;11.576;2024-01-06T08:03:57;9.00;44.10
26035;DHT22;13809;48.632;11.576;2024-01-06T08:09:00;9.00;44.00
26035;DHT22;13809;48.632;11.576;2024-01-06T08:14:06;9.00;43.90
26035;DHT22;13809;48.632;11.576;2024-01-06T08:19:09;9.00;44.10
26035;DHT22;13809;48.632;11.576;2024-01-06T08:24:13;9.00;44.00
26035;DHT22;13809;48.632;11.576;2024-01-06T08:29:18;9.00;44.10
26035;DHT22;13809;48.632;11.576;2024-01-06T08:34:21;9.00;44.40
26035;DHT22;13809;48.632;11.576;2024-01-06T08:39:25;9.10;44.20
26035;DHT22;13809;48.632;11.576;2024-01-06T08:44:30;9.10;44.10
26035;DHT22;13809;48.632;11.576;2024-01-06T08:49:33;9.00;44.30
26035;DHT22;13809;48.632;11.576;2024-01-06T08:54:36;9.00;44.20
26035;DHT22;13809;48.632;11.576;2024-01-06T08:59:41;9.10;44.30
26035;DHT22;13809;48.632;11.576;2024-01-06T09:04:44;9.10;44.40
26035;DHT22;13809;48.632;11.576;2024-01-06T09:09:48;9.10;44.30
26035;DHT22;13809;48.632;11.576;2024-01-06T09:14:52;9.20;44.20
26035;DHT22;13809;48.632;11.576;2024-01-06T09:19:55;9.20;44.30
26035;DHT22;13809;48.632;11.576;2024-01-06T09:24:58;9.20;44.10
26035;DHT22;13809;48.632;11.576;2024-01-06T09:30:04;9.20;44.10
26035;DHT22;13809;48.632;11.576;2024-01-06T09:35:08;9.20;44.20
26035;DHT22;13809;48.632;11.576;2024-01-06T09:40:12;9.20;43.90
26035;DHT22;13809;48.632;11.576;2024-01-06T09:45:18;9.20;44.20
26035;DHT22;13809;48.632;11.576;2024-01-06T09:50:22;9.20;44.30
26035;DHT22;13809;48.632;11.576;2024-01-06T09:55:26;9.20;44.20
26035;DHT22;13809;48.632;11.576;2024-01-06T10:00:31;9.30;44.30
26035;DHT22;13809;48.632;11.576;2024-01-06T10:05:34;9.30;44.20
26035;DHT22;13809;48.632;11.576;2024-01-06T10:10:38;9.30;44.10
26035;DHT22;13809;48.632;11.576;2024-01-06T10:15:42;9.20;44.00
26035;DHT22;13809;48.632;11.576;2024-01-06T10:20:45;9.20;44.30
26035;DHT22;13809;48.632;11.576;2024-01-06T10:25:52;9.20;44.10
26035;DHT22;13809;48.632;11.576;2024-01-06T10:31:00;9.10;44.40
26035;DHT22;13809;48.632;11.576;2024-01-06T10:36:04;9.00;44.30
26035;DHT22;13809;48.632;11.576;2024-01-06T10:41:08;9.00;44.30
26035;DHT22;13809;48.632;11.576;2024-01-06T10:46:14;9.00;44.20
26035;DHT22;13809;48.632;11.576;2024-01-06T10:51:19;9.00;44.60
26035;DHT22;13809;48.632;11.576;2024-01-06T10:56:25;9.00;44.50
26035;DHT22;13809;48.632;11.576;2024-01-06T11:01:29;9.00;44.40
26035;DHT22;13809;48.632;11.576;2024-01-06T11:06:33;9.10;44.50
26035;DHT22;13809;48.632;11.576;2024-01-06T11:11:38;9.10;44.40
26035;DHT22;13809;48.632;11.576;2024-01-06T11:16:43;9.10;44.50
26035;DHT22;13809;48.632;11.576;2024-01-06T11:21:46;9.10;44.70
26035;DHT22;13809;48.632;11.576;2024-01-06T11:26:51;9.20;44.50
26035;DHT22;13809;48.632;11.576;2024-01-06T11:32:17;9.20;44.60
26035;DHT22;13809;48.632;11.576;2024-01-06T11:37:34;9.30;45.10
26035;DHT22;13809;48.632;11.576;2024-01-06T11:42:41;9.30;44.70
26035;DHT22;13809;48.632;11.576;2024-01-06T11:47:47;9.30;44.60
26035;DHT22;13809;48.632;11.576;2024-01-06T11:52:54;9.30;44.50
26035;DHT22;13809;48.632;11.576;2024-01-06T11:57:58;9.30;44.10
26035;DHT22;13809;48.632;11.576;2024-01-06T12:03:05;9.30;44.00
26035;DHT22;13809;48.632;11.576;2024-01-06T12:08:08;9.30;44.20
26035;DHT22;13809;48.632;11.576;2024-01-06T12:13:12;9.30;44.00
26035;DHT22;13809;48.632;11.576;2024-01-06T12:18:20;9.20;44.00
26035;DHT22;13809;48.632;11.576;2024-01-06T12:23:25;9.30;44.30
26035;DHT22;13809;48.632;11.576;2024-01-06T12:28:29;9.20;44.00
26035;DHT22;13809;48.632;11.576;2024-01-06T12:33:34;9.30;44.20
26035;DHT22;13809;48.632;11.576;2024-01-06T12:38:39;9.30;44.30
26035;DHT22;13809;48.632;11.576;2024-01-06T12:43:44;9.30;43.80
26035;DHT22;13809;48.632;11.576;2024-01-06T12:48:49;9.30;43.80
26035;DHT22;13809;48.632;11.576;2024-01-06T12:53:52;9.30;44.00
26035;DHT22;13809;48.632;11.576;2024-01-06T12:58:56;9.30;44.00
26035;DHT22;13809;48.632;11.576;2024-01-06T13:04:00;9.20;43.90
26035;DHT22;13809;48.632;11.576;2024-01-06T13:09:04;9.20;44.00
26035;DHT22;13809;48.632;11.576;2024-01-06T13:14:08;9.20;44.00
26035;DHT22;13809;48.632;11.576;2024-01-06T13:19:13;9.20;44.00
26035;DHT22;13809;48.632;11.576;2024-01-06T13:24:16;9.30;44.30
26035;DHT22;13809;48.632;11.576;2024-01-06T13:29:19;9.30;44.10
26035;DHT22;13809;48.632;11.576;2024-01-06T13:34:24;9.30;44.10
26035;DHT22;13809;48.632;11.576;2024-01-06T13:39:27;9.30;44.20
26035;DHT22;13809;48.632;11.576;2024-01-06T13:44:30;9.40;44.20
26035;DHT22;13809;48.632;11.576;2024-01-06T13:49:35;9.40;44.00
26035;DHT22;13809;48.632;11.576;2024-01-06T13:54:38;9.40;44.10
26035;DHT22;13809;48.632;11.576;2024-01-06T13:59:41;9.50;44.00
26035;DHT22;13809;48.632;11.576;2024-01-06T14:04:46;9.50;43.90
26035;DHT22;13809;48.632;11.576;2024-01-06T14:09:50;9.50;43.90
26035;DHT22;13809;48.632;11.576;2024-01-06T14:14:53;9.50;43.90
26035;DHT22;13809;48.632;11.576;2024-01-06T14:19:57;9.50;43.70
26035;DHT22;13809;48.632;11.576;2024-01-06T14:25:01;9.40;43.60
26035;DHT22;13809;48.632;11.576;2024-01-06T14:30:08;9.40;43.60
26035;DHT22;13809;48.632;11.576;2024-01-06T14:35:13;9.40;43.80
26035;DHT22;13809;48.632;11.576;2024-01-06T14:40:18;9.30;43.60
26035;DHT22;13809;48.632;11.576;2024-01-06T14:45:21;9.30;43.30
26035;DHT22;13809;48.632;11.576;2024-01-06T14:50:26;9.20;43.30
26035;DHT22;13809;48.632;11.576;2024-01-06T14:55:29;9.20;43.50
26035;DHT22;13809;48.632;11.576;2024-01-06T15:00:32;9.10;43.30
26035;DHT22;13809;48.632;11.576;2024-01-06T15:05:37;9.10;43.20
26035;DHT22;13809;48.632;11.576;2024-01-06T15:10:40;9.10;43.30
26035;DHT22;13809;48.632;11.576;2024-01-06T15:15:43;9.10;43.30
26035;DHT22;13809;48.632;11.576;2024-01-06T15:20:48;9.20;43.40
26035;DHT22;13809;48.632;11.576;2024-01-06T15:25:52;9.20;43.50
26035;DHT22;13809;48.632;11.576;2024-01-06T15:30:55;9.20;43.40
26035;DHT22;13809;48.632;11.576;2024-01-06T15:36:01;9.20;43.50
26035;DHT22;13809;48.632;11.576;2024-01-06T15:41:04;9.20;43.60
26035;DHT22;13809;48.632;11.576;2024-01-06T15:46:08;9.20;43.50
26035;DHT22;13809;48.632;11.576;2024-01-06T15:51:13;9.20;43.40
26035;DHT22;13809;48.632;11.576;2024-01-06T15:56:16;9.20;43.60
26035;DHT22;13809;48.632;11.576;2024-01-06T16:01:19;9.20;43.40
26035;DHT22;13809;48.632;11.576;2024-01-06T16:06:25;9.20;43.30
26035;DHT22;13809;48.632;11.576;2024-01-06T16:11:28;9.10;43.20
26035;DHT22;13809;48.632;11.576;2024-01-06T16:16:32;9.10;43.30
26035;DHT22;13809;48.632;11.576;2024-01-06T16:21:36;9.10;43.30
26035;DHT22;13809;48.632;11.576;2024-01-06T16:26:39;9.10;43.40
26035;DHT22;13809;48.632;11.576;2024-01-06T16:31:43;9.00;43.40
26035;DHT22;13809;48.632;11.576;2024-01-06T16:36:48;9.00;43.50
26035;DHT22;13809;48.632;11.576;2024-01-06T16:41:51;9.00;43.70
26035;DHT22;13809;48.632;11.576;2024-01-06T16:46:54;9.00;43.70
26035;DHT22;13809;48.632;11.576;2024-01-06T16:52:01;9.00;43.70
26035;DHT22;13809;48.632;11.576;2024-01-06T16:57:04;9.00;43.80
26035;DHT22;13809;48.632;11.576;2024-01-06T17:02:08;9.00;43.80
26035;DHT22;13809;48.632;11.576;2024-01-06T17:07:13;9.00;43.80
26035;DHT22;13809;48.632;11.576;2024-01-06T17:12:20;9.00;43.80
26035;DHT22;13809;48.632;11.576;2024-01-06T17:17:24;9.00;43.80
26035;DHT22;13809;48.632;11.576;2024-01-06T17:22:28;9.00;43.70
26035;DHT22;13809;48.632;11.576;2024-01-06T17:27:31;9.00;43.60
26035;DHT22;13809;48.632;11.576;2024-01-06T17:32:35;8.90;43.30
26035;DHT22;13809;48.632;11.576;2024-01-06T17:37:40;8.90;43.30
26035;DHT22;13809;48.632;11.576;2024-01-06T17:42:43;8.90;43.40
26035;DHT22;13809;48.632;11.576;2024-01-06T17:47:46;8.90;43.50
26035;DHT22;13809;48.632;11.576;2024-01-06T17:52:52;8.90;43.70
26035;DHT22;13809;48.632;11.576;2024-01-06T17:57:57;8.80;43.70
26035;DHT22;13809;48.632;11.576;2024-01-06T18:03:00;8.80;43.60
26035;DHT22;13809;48.632;11.576;2024-01-06T18:08:06;8.80;43.60
26035;DHT22;13809;48.632;11.576;2024-01-06T18:13:09;8.80;43.70
26035;DHT22;13809;48.632;11.576;2024-01-06T18:18:13;8.80;43.60
26035;DHT22;13809;48.632;11.576;2024-01-06T18:23:17;8.80;43.70
26035;DHT22;13809;48.632;11.576;2024-01-06T18:28:20;8.80;43.80
26035;DHT22;13809;48.632;11.576;2024-01-06T18:33:25;8.80;43.70
26035;DHT22;13809;48.632;11.576;2024-01-06T18:38:30;8.70;43.70
26035;DHT22;13809;48.632;11.576;2024-01-06T18:43:33;8.70;43.80
26035;DHT22;13809;48.632;11.576;2024-01-06T18:48:37;8.70;43.80
26035;DHT22;13809;48.632;11.576;2024-01-06T18:53:42;8.70;43.90
26035;DHT22;13809;48.632;11.576;2024-01-06T18:58:45;8.70;44.00
26035;DHT22;13809;48.632;11.576;2024-01-06T19:03:49;8.70;43.90
26035;DHT22;13809;48.632;11.576;2024-01-06T19:08:53;8.70;43.90
26035;DHT22;13809;48.632;11.576;2024-01-06T19:13:57;8.70;43.90
26035;DHT22;13809;48.632;11.576;2024-01-06T19:19:00;8.70;43.90
26035;DHT22;13809;48.632;11.576;2024-01-06T19:24:06;8.70;43.90
26035;DHT22;13809;48.632;11.576;2024-01-06T19:29:10;8.70;44.10
26035;DHT22;13809;48.632;11.576;2024-01-06T19:34:13;8.70;44.10
26035;DHT22;13809;48.632;11.576;2024-01-06T19:39:17;8.70;44.10
26035;DHT22;13809;48.632;11.576;2024-01-06T19:44:21;8.70;44.20
26035;DHT22;13809;48.632;11.576;2024-01-06T19:49:24;8.70;44.10
26035;DHT22;13809;48.632;11.576;2024-01-06T19:54:28;8.70;44.10
26035;DHT22;13809;48.632;11.576;2024-01-06T19:59:34;8.70;44.20
26035;DHT22;13809;48.632;11.576;2024-01-06T20:04:37;8.70;44.10
26035;DHT22;13809;48.632;11.576;2024-01-06T20:09:44;8.70;44.00
26035;DHT22;13809;48.632;11.576;2024-01-06T20:14:48;8.70;44.30
26035;DHT22;13809;48.632;11.576;2024-01-06T20:19:53;8.70;44.10
26035;DHT22;13809;48.632;11.576;2024-01-06T20:24:58;8.70;44.10
26035;DHT22;13809;48.632;11.576;2024-01-06T20:30:04;8.70;44.20
26035;DHT22;13809;48.632;11.576;2024-01-06T20:35:08;8.70;44.10
26035;DHT22;13809;48.632;11.576;2024-01-06T20:40:13;8.70;44.40
26035;DHT22;13809;48.632;11.576;2024-01-06T20:45:16;8.70;44.20
26035;DHT22;13809;48.632;11.576;2024-01-06T20:50:20;8.70;44.20
26035;DHT22;13809;48.632;11.576;2024-01-06T20:55:24;8.70;44.20
26035;DHT22;13809;48.632;11.576;2024-01-06T21:00:27;8.70;44.30
26035;DHT22;13809;48.632;11.576;2024-01-06T21:05:35;8.70;44.30
26035;DHT22;13809;48.632;11.576;2024-01-06T21:10:40;8.70;44.40
26035;DHT22;13809;48.632;11.576;2024-01-06T21:15:43;8.70;44.40
26035;DHT22;13809;48.632;11.576;2024-01-06T21:20:47;8.70;44.10
26035;DHT22;13809;48.632;11.576;2024-01-06T21:25:51;8.70;43.80
26035;DHT22;13809;48.632;11.576;2024-01-06T21:30:55;8.70;43.60
26035;DHT22;13809;48.632;11.576;2024-01-06T21:35:58;8.60;43.40
26035;DHT22;13809;48.632;11.576;2024-01-06T21:41:04;8.50;43.50
26035;DHT22;13809;48.632;11.576;2024-01-06T21:46:09;8.50;43.70
26035;DHT22;13809;48.632;11.576;2024-01-06T21:51:12;8.40;43.70
26035;DHT22;13809;48.632;11.576;2024-01-06T21:56:17;8.40;43.80
26035;DHT22;13809;48.632;11.576;2024-01-06T22:01:20;8.30;44.10
26035;DHT22;13809;48.632;11.576;2024-01-06T22:06:24;8.20;43.90
26035;DHT22;13809;48.632;11.576;2024-01-06T22:11:28;8.20;44.00
26035;DHT22;13809;48.632;11.576;2024-01-06T22:16:32;8.10;44.10
26035;DHT22;13809;48.632;11.576;2024-01-06T22:21:39;8.10;44.10
26035;DHT22;13809;48.632;11.576;2024-01-06T22:26:47;8.10;44.50
26035;DHT22;13809;48.632;11.576;2024-01-06T22:31:50;8.10;44.40
26035;DHT22;13809;48.632;11.576;2024-01-06T22:36:53;8.00;44.20
26035;DHT22;13809;48.632;11.576;2024-01-06T22:42:00;8.00;44.20
26035;DHT22;13809;48.632;11.576;2024-01-06T22:47:03;8.00;44.40
26035;DHT22;13809;48.632;11.576;2024-01-06T22:52:06;8.00;44.30
26035;DHT22;13809;48.632;11.576;2024-01-06T22:57:11;8.00;44.40
26035;DHT22;13809;48.632;11.576;2024-01-06T23:02:14;7.90;44.60
26035;DHT22;13809;48.632;11.576;2024-01-06T23:07:17;8.00;44.50
26035;DHT22;13809;48.632;11.576;2024-01-06T23:12:22;8.00;44.50
26035;DHT22;13809;48.632;11.576;2024-01-06T23:17:25;8.00;44.70
26035;DHT22;13809;48.632;11.576;2024-01-06T23:22:28;8.00;44.40
26035;DHT22;13809;48.632;11.576;2024-01-06T23:27:33;8.00;44.50
26035;DHT22;13809;48.632;11.576;2024-01-06T23:32:36;8.00;44.50
26035;DHT22;13809;48.632;11.576;2024-01-06T23:37:40;8.00;44.30
26035;DHT22;13809;48.632;11.576;2024-01-06T23:42:45;8.00;44.50
26035;DHT22;13809;48.632;11.576;2024-01-06T23:47:48;8.00;44.60
26035;DHT22;13809;48.632;11.576;2024-01-06T23:52:52;8.00;44.50
26035;DHT22;13809;48.632;11.576;2024-01-06T23:57:56;8.00;44.50
